Time;durP1;ratioP1;P1;durP2;ratioP2;P2;SDS_P1;SDS_P2;PMS_P1;PMS_P2;Temp;Humidity;BMP_temperature;BMP_pressure;BME280_temperature;BME280_humidity;BME280_pressure;Samples;Min_cycle;Max_cycle;Signal;HPM_P1;HPM_P2
2021/09/23 00:00:19;;;;;;;6.03;2.27;;;;;;;11.54;100.00;101645.44;5035520;28;20534;-71
2021/09/23 00:03:01;;;;;;;3.50;2.10;;;;;;;11.52;100.00;101638.69;5035490;28;20487;-70
2021/09/23 00:05:29;;;;;;;6.13;2.90;;;;;;;11.50;100.00;101630.00;5034809;28;20459;-70
2021/09/23 00:07:57;;;;;;;6.20;3.77;;;;;;;11.35;100.00;101620.88;5035474;28;20443;-70
2021/09/23 00:10:26;;;;;;;5.63;3.37;;;;;;;11.28;100.00;101614.94;5035176;28;20467;-70
2021/09/23 00:12:55;;;;;;;5.37;2.70;;;;;;;11.18;100.00;101604.16;5034728;28;20804;-70
2021/09/23 00:15:21;;;;;;;8.07;4.43;;;;;;;11.20;100.00;101595.72;5035281;28;20476;-70
2021/09/23 00:17:53;;;;;;;4.73;3.30;;;;;;;11.18;100.00;101600.63;5034953;28;20831;-70
2021/09/23 00:20:21;;;;;;;6.00;3.70;;;;;;;11.13;100.00;101604.19;5065667;22;20498;-69
2021/09/23 00:22:47;;;;;;;5.10;3.10;;;;;;;11.15;100.00;101601.97;5054929;28;20490;-67
2021/09/23 00:25:14;;;;;;;4.60;3.10;;;;;;;11.22;100.00;101602.50;5054899;28;20803;-70
2021/09/23 00:27:41;;;;;;;4.10;3.07;;;;;;;11.28;100.00;101598.66;5055238;28;20446;-70
2021/09/23 00:30:11;;;;;;;5.20;3.23;;;;;;;11.33;100.00;101601.34;5054559;28;20982;-70
2021/09/23 00:32:38;;;;;;;5.20;3.50;;;;;;;11.36;100.00;101595.34;5054868;28;20453;-70
2021/09/23 00:35:06;;;;;;;5.20;4.60;;;;;;;11.40;100.00;101586.66;5054851;28;20450;-71
2021/09/23 00:37:32;;;;;;;5.33;3.63;;;;;;;11.45;100.00;101582.00;5054568;28;20454;-70
2021/09/23 00:39:59;;;;;;;3.90;3.17;;;;;;;11.51;100.00;101577.34;5054639;28;20466;-69
2021/09/23 00:42:26;;;;;;;8.47;4.47;;;;;;;11.58;100.00;101569.69;5054648;28;20493;-69
2021/09/23 00:44:57;;;;;;;12.23;4.37;;;;;;;11.58;100.00;101569.69;5054397;28;20931;-70
2021/09/23 00:47:25;;;;;;;5.60;4.30;;;;;;;11.62;100.00;101568.03;5054607;28;20442;-69
2021/09/23 00:49:51;;;;;;;6.47;3.70;;;;;;;11.61;100.00;101564.53;5054106;28;20867;-68
2021/09/23 00:52:19;;;;;;;5.20;4.30;;;;;;;11.62;100.00;101562.63;5054536;28;20445;-69
2021/09/23 00:54:46;;;;;;;11.63;4.90;;;;;;;11.62;100.00;101573.47;5054485;28;20453;-68
2021/09/23 00:57:17;;;;;;;7.00;4.93;;;;;;;11.66;100.00;101568.28;5054360;28;20453;-68
2021/09/23 00:59:43;;;;;;;8.17;5.07;;;;;;;11.68;100.00;101569.59;5054307;28;20454;-68
2021/09/23 01:02:10;;;;;;;4.67;3.70;;;;;;;11.68;100.00;101575.03;5054248;28;20442;-68
2021/09/23 01:04:42;;;;;;;7.30;5.50;;;;;;;11.67;100.00;101565.28;5053943;28;20537;-68
2021/09/23 01:07:09;;;;;;;6.03;4.03;;;;;;;11.66;100.00;101560.97;5054222;28;20438;-69
2021/09/23 01:09:38;;;;;;;11.60;5.07;;;;;;;11.64;100.00;101563.13;5054066;28;20446;-68
2021/09/23 01:12:05;;;;;;;6.70;4.03;;;;;;;11.60;100.00;101553.97;5054061;28;20469;-68
2021/09/23 01:14:32;;;;;;;9.20;5.67;;;;;;;11.55;100.00;101556.69;5053693;28;20438;-68
2021/09/23 01:16:58;;;;;;;7.70;4.73;;;;;;;11.45;100.00;101545.94;5054046;28;20442;-67
2021/09/23 01:19:25;;;;;;;9.07;6.20;;;;;;;11.52;100.00;101543.72;5053926;28;20441;-68
2021/09/23 01:21:53;;;;;;;9.10;5.93;;;;;;;11.54;100.00;101536.88;5052896;28;20461;-66
2021/09/23 01:24:19;;;;;;;12.60;6.60;;;;;;;11.52;100.00;101519.28;5053795;28;20516;-68
2021/09/23 01:26:48;;;;;;;14.00;7.53;;;;;;;11.57;100.00;101519.25;5053810;28;20445;-67
2021/09/23 01:29:14;;;;;;;9.13;7.10;;;;;;;11.56;100.00;101517.63;5053812;28;20446;-68
2021/09/23 01:31:41;;;;;;;11.63;5.93;;;;;;;11.60;100.00;101514.06;5053642;28;20464;-69
2021/09/23 01:34:07;;;;;;;8.73;6.07;;;;;;;11.66;100.00;101505.88;5053718;28;20441;-68
2021/09/23 01:36:33;;;;;;;5.20;4.23;;;;;;;11.75;100.00;101502.25;5053650;28;20446;-68
2021/09/23 01:39:01;;;;;;;11.57;7.43;;;;;;;11.79;100.00;101502.50;5053421;28;20955;-67
2021/09/23 01:41:28;;;;;;;12.13;7.30;;;;;;;11.80;100.00;101496.75;5053521;28;20458;-69
2021/09/23 01:43:54;;;;;;;11.00;7.07;;;;;;;11.83;100.00;101485.38;5053481;28;20486;-67
2021/09/23 01:46:20;;;;;;;6.40;4.80;;;;;;;11.91;100.00;101480.41;5053221;28;20943;-67
2021/09/23 01:48:47;;;;;;;17.70;7.67;;;;;;;11.97;100.00;101481.97;5053561;28;20450;-67
2021/09/23 01:51:13;;;;;;;9.53;6.63;;;;;;;12.00;100.00;101493.09;5052697;28;20478;-69
2021/09/23 01:53:40;;;;;;;14.80;8.20;;;;;;;12.02;100.00;101499.03;5053443;28;20426;-69
2021/09/23 01:56:07;;;;;;;16.47;7.80;;;;;;;12.05;100.00;101492.22;5053446;28;20446;-69
2021/09/23 01:58:34;;;;;;;10.23;6.07;;;;;;;12.03;100.00;101478.09;5053386;28;20457;-69
2021/09/23 02:01:01;;;;;;;14.57;6.60;;;;;;;11.97;100.00;101481.97;5053221;28;20473;-69
2021/09/23 02:03:27;;;;;;;14.77;6.87;;;;;;;11.90;100.00;101478.78;5052900;28;20860;-69
2021/09/23 02:05:54;;;;;;;8.03;5.53;;;;;;;11.85;100.00;101479.66;5053328;28;20438;-69
2021/09/23 02:08:20;;;;;;;10.97;6.67;;;;;;;11.82;100.00;101478.34;5053154;28;20446;-69
2021/09/23 02:10:47;;;;;;;14.40;6.90;;;;;;;11.84;100.00;101467.19;5053179;28;20871;-69
2021/09/23 02:13:15;;;;;;;12.50;7.00;;;;;;;11.79;100.00;101462.59;5053198;28;20442;-72
2021/09/23 02:15:41;;;;;;;8.90;5.10;;;;;;;11.78;100.00;101458.25;5053171;28;20450;-69
2021/09/23 02:18:07;;;;;;;10.43;6.80;;;;;;;11.77;100.00;101453.91;5053101;28;20453;-70
2021/09/23 02:20:34;;;;;;;8.90;5.43;;;;;;;11.79;100.00;101451.72;5052669;28;20855;-68
2021/09/23 02:23:00;;;;;;;20.00;8.97;;;;;;;11.84;100.00;101451.69;5053038;28;20481;-69
2021/09/23 02:25:27;;;;;;;10.47;6.00;;;;;;;11.84;100.00;101448.19;5053168;28;20442;-70
2021/09/23 02:27:53;;;;;;;7.63;5.47;;;;;;;11.83;100.00;101444.66;5053249;28;20442;-68
2021/09/23 02:30:21;;;;;;;9.83;6.33;;;;;;;11.83;100.00;101441.94;5052866;28;20461;-71
2021/09/23 02:32:48;;;;;;;8.27;5.73;;;;;;;11.82;100.00;101440.34;5053602;28;20446;-67
2021/09/23 02:35:14;;;;;;;14.87;7.43;;;;;;;11.86;100.00;101445.97;5056744;28;20939;-71
2021/09/23 02:37:40;;;;;;;25.53;7.47;;;;;;;11.84;100.00;101432.69;5056796;28;20857;-70
2021/09/23 02:40:09;;;;;;;18.53;8.13;;;;;;;11.90;100.00;101440.78;5056939;28;20835;-70
2021/09/23 02:42:36;;;;;;;10.53;6.07;;;;;;;11.86;100.00;101435.94;5056874;28;20457;-70
2021/09/23 02:45:04;;;;;;;12.10;7.70;;;;;;;11.90;100.00;101421.78;5056871;28;20446;-71
2021/09/23 02:47:31;;;;;;;10.37;7.00;;;;;;;11.92;100.00;101423.13;5056818;28;20815;-70
2021/09/23 02:49:58;;;;;;;8.40;4.93;;;;;;;11.92;100.00;101414.16;5056468;28;21017;-69
2021/09/23 02:52:24;;;;;;;13.27;7.57;;;;;;;11.95;100.00;101406.22;5056446;28;20958;-70
2021/09/23 02:54:51;;;;;;;6.90;4.80;;;;;;;11.98;100.00;101413.00;5056431;28;20939;-69
2021/09/23 02:57:17;;;;;;;17.20;6.87;;;;;;;11.96;100.00;101401.63;5056651;28;20445;-68
2021/09/23 02:59:44;;;;;;;11.23;8.27;;;;;;;11.95;100.00;101391.84;5056553;28;20450;-70
2021/09/23 03:02:10;;;;;;;17.53;9.77;;;;;;;11.91;100.00;101379.94;5056624;28;20445;-70
2021/09/23 03:04:38;;;;;;;15.63;7.80;;;;;;;11.87;100.00;101371.59;5056477;28;20477;-70
2021/09/23 03:07:05;;;;;;;12.60;8.40;;;;;;;11.92;100.00;101376.16;5056573;28;20819;-70
2021/09/23 03:09:31;;;;;;;15.40;9.10;;;;;;;11.93;100.00;101367.72;5056403;28;20453;-69
2021/09/23 03:11:58;;;;;;;13.60;8.07;;;;;;;11.92;100.00;101368.00;5056477;28;20491;-69
2021/09/23 03:14:24;;;;;;;17.93;9.80;;;;;;;11.89;100.00;101363.97;5056343;28;20438;-70
2021/09/23 03:16:51;;;;;;;14.03;7.70;;;;;;;11.91;100.00;101375.34;5056436;28;20438;-69
2021/09/23 03:19:17;;;;;;;15.93;8.27;;;;;;;11.88;100.00;101366.97;5056229;28;20450;-69
2021/09/23 03:21:45;;;;;;;21.53;10.17;;;;;;;11.92;100.00;101370.72;5055754;28;20504;-68
2021/09/23 03:24:12;;;;;;;18.77;8.23;;;;;;;11.88;100.00;101366.97;5056062;28;20508;-68
2021/09/23 03:26:39;;;;;;;14.47;9.30;;;;;;;11.88;100.00;101372.41;5056146;28;20802;-69
2021/09/23 03:29:07;;;;;;;16.40;9.13;;;;;;;11.92;100.00;101378.88;5055804;28;20470;-69
2021/09/23 03:31:33;;;;;;;21.03;9.53;;;;;;;11.92;100.00;101362.59;5055906;28;20457;-68
2021/09/23 03:34:00;;;;;;;12.53;7.30;;;;;;;11.91;100.00;101369.91;5056021;28;20446;-67
2021/09/23 03:36:26;;;;;;;11.97;8.17;;;;;;;11.89;100.00;101368.59;5055678;28;20955;-69
2021/09/23 03:38:55;;;;;;;18.90;9.77;;;;;;;11.92;100.00;101368.00;5055947;28;20438;-68
2021/09/23 03:41:22;;;;;;;18.50;10.80;;;;;;;11.98;100.00;101366.84;5055794;28;20466;-69
2021/09/23 03:43:48;;;;;;;15.00;8.63;;;;;;;11.96;100.00;101358.19;5054930;28;20504;-67
2021/09/23 03:46:15;;;;;;;19.93;9.83;;;;;;;11.99;100.00;101352.16;5055809;28;20462;-69
2021/09/23 03:48:41;;;;;;;14.63;7.40;;;;;;;11.99;100.00;101347.53;5055410;28;20947;-69
2021/09/23 03:51:08;;;;;;;18.00;10.60;;;;;;;11.95;100.00;101346.50;5055579;28;20475;-68
2021/09/23 03:53:38;;;;;;;17.40;9.07;;;;;;;11.91;100.00;101350.91;5055665;28;20434;-69
2021/09/23 03:56:06;;;;;;;15.03;9.73;;;;;;;11.93;100.00;101342.47;5055603;28;20450;-69
2021/09/23 03:58:32;;;;;;;21.50;9.67;;;;;;;11.96;100.00;101334.56;5055244;28;20735;-69
2021/09/23 04:00:59;;;;;;;20.20;10.80;;;;;;;11.96;100.00;101331.03;5055134;28;20462;-68
2021/09/23 04:03:25;;;;;;;16.80;9.40;;;;;;;12.02;100.00;101336.09;5055067;28;21022;-69
2021/09/23 04:05:51;;;;;;;14.57;8.77;;;;;;;12.04;100.00;101335.78;5055143;28;20450;-69
2021/09/23 04:08:18;;;;;;;16.67;10.07;;;;;;;12.06;100.00;101339.84;5055312;28;20441;-69
2021/09/23 04:10:44;;;;;;;23.63;9.83;;;;;;;12.09;100.00;101339.28;5055349;28;20469;-69
2021/09/23 04:13:13;;;;;;;20.10;10.93;;;;;;;12.10;100.00;101330.00;5055250;28;20446;-69
2021/09/23 04:15:39;;;;;;;26.07;11.83;;;;;;;12.10;100.00;101331.94;5055267;28;20446;-69
2021/09/23 04:18:06;;;;;;;16.60;9.80;;;;;;;12.12;100.00;101332.44;5055219;28;20517;-70
2021/09/23 04:20:32;;;;;;;18.00;9.67;;;;;;;12.10;100.00;101331.94;5054801;28;20480;-69
2021/09/23 04:22:59;;;;;;;22.97;11.93;;;;;;;12.08;100.00;101325.97;5055112;28;20442;-68
2021/09/23 04:25:25;;;;;;;18.83;11.40;;;;;;;12.05;100.00;101321.94;5054977;28;20486;-69
2021/09/23 04:27:52;;;;;;;24.60;11.70;;;;;;;12.03;100.00;101318.69;5054985;28;20442;-68
2021/09/23 04:30:19;;;;;;;16.90;11.27;;;;;;;12.01;100.00;101315.47;5054991;28;20469;-70
2021/09/23 04:32:46;;;;;;;12.73;8.63;;;;;;;12.00;100.00;101313.06;5054843;28;20434;-70
2021/09/23 04:35:12;;;;;;;16.47;9.83;;;;;;;11.96;100.00;101312.84;5054858;28;20443;-66
2021/09/23 04:37:39;;;;;;;18.33;9.43;;;;;;;11.93;100.00;101309.91;5053844;28;20822;-66
2021/09/23 04:40:06;;;;;;;24.20;11.77;;;;;;;11.94;100.00;101303.34;5054684;28;20467;-65
2021/09/23 04:42:33;;;;;;;18.73;10.13;;;;;;;11.94;100.00;101293.31;5054702;28;20939;-69
2021/09/23 04:45:00;;;;;;;20.53;10.37;;;;;;;11.97;100.00;101294.63;5054638;28;20482;-66
2021/09/23 04:47:28;;;;;;;20.03;10.27;;;;;;;11.98;100.00;101294.34;5054606;28;20449;-66
2021/09/23 04:49:54;;;;;;;16.03;10.77;;;;;;;11.97;100.00;101289.22;5054512;28;20454;-66
2021/09/23 04:52:21;;;;;;;26.00;9.03;;;;;;;11.93;100.00;101278.13;5054554;28;20484;-65
2021/09/23 04:54:47;;;;;;;20.80;11.10;;;;;;;11.91;100.00;101284.94;5054364;28;20811;-66
2021/09/23 04:57:14;;;;;;;16.07;10.50;;;;;;;11.94;100.00;101285.16;5053714;28;20438;-71
2021/09/23 04:59:40;;;;;;;19.20;10.97;;;;;;;11.93;100.00;101280.84;5054372;28;20516;-68
2021/09/23 05:02:08;;;;;;;17.90;10.10;;;;;;;11.97;100.00;101292.72;5054269;28;20883;-69
2021/09/23 05:04:35;;;;;;;21.83;9.70;;;;;;;11.96;100.00;101282.16;5054213;28;20493;-68
2021/09/23 05:07:02;;;;;;;18.67;7.33;;;;;;;11.98;100.00;101271.81;5054176;28;20450;-69
2021/09/23 05:09:30;;;;;;;23.40;10.40;;;;;;;12.00;100.00;101270.44;5053845;28;20962;-69
2021/09/23 05:11:57;;;;;;;13.60;9.40;;;;;;;12.02;100.00;101265.50;5054168;28;20476;-68
2021/09/23 05:14:23;;;;;;;18.93;10.33;;;;;;;12.03;100.00;101261.69;5054101;28;20534;-69
2021/09/23 05:16:50;;;;;;;15.63;9.83;;;;;;;12.05;100.00;101262.19;5054263;28;20449;-69
2021/09/23 05:19:16;;;;;;;25.13;12.43;;;;;;;12.03;100.00;101250.81;5053935;28;20450;-68
2021/09/23 05:21:44;;;;;;;17.07;9.23;;;;;;;12.06;100.00;101254.88;5053571;28;20991;-68
2021/09/23 05:24:12;;;;;;;19.60;12.93;;;;;;;12.06;100.00;101249.44;5053818;28;20482;-70
2021/09/23 05:26:39;;;;;;;17.00;10.37;;;;;;;12.08;100.00;101248.00;5053952;28;20482;-68
2021/09/23 05:29:05;;;;;;;13.20;8.83;;;;;;;12.09;100.00;101254.28;5052710;28;20857;-68
2021/09/23 05:31:32;;;;;;;14.03;7.53;;;;;;;12.11;100.00;101255.59;5053411;28;20462;-67
2021/09/23 05:33:58;;;;;;;17.57;9.47;;;;;;;12.17;100.00;101250.88;5053703;28;20442;-68
2021/09/23 05:36:25;;;;;;;18.13;8.97;;;;;;;12.22;100.00;101253.53;5053359;28;21046;-68
2021/09/23 05:38:53;;;;;;;16.03;9.73;;;;;;;12.22;100.00;101256.25;5053686;28;20442;-68
2021/09/23 05:41:19;;;;;;;20.83;11.57;;;;;;;12.20;100.00;101258.44;5053594;28;20461;-67
2021/09/23 05:43:46;;;;;;;20.07;10.17;;;;;;;12.24;100.00;101264.09;5053546;28;20438;-67
2021/09/23 05:46:12;;;;;;;14.13;8.97;;;;;;;12.28;100.00;101255.06;5053534;28;20830;-69
2021/09/23 05:48:39;;;;;;;19.20;10.97;;;;;;;12.32;100.00;101250.66;5053213;28;20453;-68
2021/09/23 05:51:05;;;;;;;18.47;12.07;;;;;;;12.37;100.00;101253.28;5053408;28;20466;-69
2021/09/23 05:53:32;;;;;;;13.10;8.60;;;;;;;12.42;100.00;101259.75;5053283;28;20426;-66
2021/09/23 05:55:59;;;;;;;15.23;7.73;;;;;;;12.45;100.00;101257.25;5053115;28;21013;-65
2021/09/23 05:58:26;;;;;;;16.20;11.27;;;;;;;12.50;100.00;101259.06;5053321;28;20450;-67
2021/09/23 06:00:52;;;;;;;19.10;9.27;;;;;;;12.50;100.00;101264.50;5053303;28;20469;-66
2021/09/23 06:03:19;;;;;;;16.00;9.50;;;;;;;12.50;100.00;101256.34;5053216;28;20438;-66
2021/09/23 06:05:47;;;;;;;13.77;7.67;;;;;;;12.55;100.00;101267.13;5053201;28;20489;-66
2021/09/23 06:08:13;;;;;;;17.47;10.73;;;;;;;12.59;100.00;101262.72;5052955;28;20478;-65
2021/09/23 06:10:40;;;;;;;18.20;11.27;;;;;;;12.65;100.00;101261.50;5053146;28;20463;-66
2021/09/23 06:13:08;;;;;;;15.03;9.17;;;;;;;12.69;100.00;101261.72;5053048;28;20442;-67
2021/09/23 06:15:35;;;;;;;15.73;9.43;;;;;;;12.75;100.00;101247.75;5053227;28;20446;-67
2021/09/23 06:18:01;;;;;;;22.17;11.47;;;;;;;12.79;100.00;101248.78;5053060;28;20445;-69
2021/09/23 06:20:28;;;;;;;13.80;9.77;;;;;;;12.81;100.00;101243.84;5077863;22;20478;-70
2021/09/23 06:22:55;;;;;;;19.63;10.00;;;;;;;12.84;100.00;101245.97;5012781;28;20463;-70
2021/09/23 06:25:22;;;;;;;21.03;12.17;;;;;;;12.81;100.00;101237.59;5013054;28;20578;-70
2021/09/23 06:27:49;;;;;;;13.17;9.80;;;;;;;12.86;100.00;101229.34;5013059;28;20942;-70
2021/09/23 06:30:17;;;;;;;19.77;11.80;;;;;;;12.88;100.00;101227.94;5013332;28;20444;-70
2021/09/23 06:32:44;;;;;;;20.27;10.13;;;;;;;12.97;100.00;101219.06;5013290;28;20468;-70
2021/09/23 06:35:11;;;;;;;15.10;9.80;;;;;;;13.04;100.00;101220.28;5013322;28;20472;-69
2021/09/23 06:37:38;;;;;;;20.37;9.27;;;;;;;13.08;100.00;101221.31;5013039;28;20942;-70
2021/09/23 06:40:05;;;;;;;19.93;11.00;;;;;;;13.14;100.00;101214.63;5013242;28;20795;-70
2021/09/23 06:42:32;;;;;;;21.80;10.57;;;;;;;13.17;100.00;101213.25;5013212;28;20494;-69
2021/09/23 06:44:59;;;;;;;27.90;9.70;;;;;;;13.22;100.00;101218.59;5013116;28;20484;-69
2021/09/23 06:47:26;;;;;;;18.40;10.77;;;;;;;13.24;100.00;101224.56;5013146;28;20448;-69
2021/09/23 06:49:54;;;;;;;27.87;12.00;;;;;;;13.28;100.00;101227.47;5013162;28;20448;-69
2021/09/23 06:52:21;;;;;;;17.93;10.50;;;;;;;13.30;100.00;101222.53;5013071;28;20474;-69
2021/09/23 06:54:47;;;;;;;24.03;12.00;;;;;;;13.33;100.00;101211.88;5013134;28;20436;-69
2021/09/23 06:57:14;;;;;;;26.03;12.77;;;;;;;13.37;100.00;101210.16;5012735;28;20443;-70
2021/09/23 06:59:40;;;;;;;21.90;11.17;;;;;;;13.39;100.00;101204.38;5013114;28;20443;-70
2021/09/23 07:02:07;;;;;;;20.20;12.50;;;;;;;13.43;100.00;101188.25;5012967;28;20821;-70
2021/09/23 07:04:35;;;;;;;20.77;9.20;;;;;;;13.48;100.00;101183.50;5012982;28;20495;-69
2021/09/23 07:07:02;;;;;;;19.90;11.50;;;;;;;13.49;100.00;101189.75;5012689;28;20933;-69
2021/09/23 07:09:28;;;;;;;24.07;11.90;;;;;;;13.50;100.00;101189.47;5013072;28;20443;-70
2021/09/23 07:11:55;;;;;;;25.97;12.20;;;;;;;13.50;100.00;101184.03;5012903;28;20491;-71
2021/09/23 07:14:21;;;;;;;21.17;12.00;;;;;;;13.59;100.00;101184.06;5012953;28;20444;-72
2021/09/23 07:16:48;;;;;;;18.93;10.27;;;;;;;13.65;100.00;101182.88;5012982;28;20447;-70
2021/09/23 07:19:14;;;;;;;22.90;10.57;;;;;;;13.72;100.00;101190.59;5013965;28;20451;-70
2021/09/23 07:21:42;;;;;;;22.97;11.10;;;;;;;13.83;100.00;101178.38;5016244;28;20475;-70
2021/09/23 07:24:09;;;;;;;27.57;13.10;;;;;;;13.88;98.98;101172.81;5016440;28;20448;-70
2021/09/23 07:26:35;;;;;;;35.83;13.13;;;;;;;14.00;98.50;101169.53;5016536;28;20439;-71
2021/09/23 07:29:01;;;;;;;28.17;13.23;;;;;;;14.13;98.44;101174.91;5016443;28;20455;-71
2021/09/23 07:31:28;;;;;;;20.67;11.27;;;;;;;14.24;95.85;101167.28;5016333;28;20464;-70
2021/09/23 07:33:54;;;;;;;25.37;14.13;;;;;;;14.35;95.79;101160.47;5016337;28;20475;-70
2021/09/23 07:36:21;;;;;;;30.33;14.70;;;;;;;14.42;96.11;101154.56;5015933;28;20958;-71
2021/09/23 07:38:49;;;;;;;31.20;14.03;;;;;;;14.53;94.86;101149.69;5016242;28;20440;-71
2021/09/23 07:41:15;;;;;;;32.13;14.10;;;;;;;14.60;94.59;101150.03;5016084;28;20517;-70
2021/09/23 07:43:42;;;;;;;31.53;12.43;;;;;;;14.67;94.25;101144.94;5016151;28;20455;-71
2021/09/23 07:46:08;;;;;;;25.03;13.10;;;;;;;14.75;93.81;101140.63;5015718;28;20484;-71
2021/09/23 07:48:35;;;;;;;33.40;13.27;;;;;;;14.84;92.49;101134.09;5016043;28;20455;-71
2021/09/23 07:51:01;;;;;;;33.00;13.27;;;;;;;14.99;91.77;101137.50;5015920;28;20464;-71
2021/09/23 07:53:28;;;;;;;29.43;11.27;;;;;;;15.18;91.17;101129.81;5015973;28;20456;-70
2021/09/23 07:55:55;;;;;;;23.87;12.80;;;;;;;15.33;89.88;101121.19;5015786;28;20907;-71
2021/09/23 07:58:22;;;;;;;31.47;14.30;;;;;;;15.37;89.39;101108.50;5015851;28;20444;-71
2021/09/23 08:00:49;;;;;;;29.30;11.50;;;;;;;15.43;88.43;101116.53;5015745;28;20467;-70
2021/09/23 08:03:16;;;;;;;26.10;12.00;;;;;;;15.50;88.69;101111.41;5015711;28;20448;-72
2021/09/23 08:05:42;;;;;;;24.57;11.97;;;;;;;15.62;88.79;101101.41;5015651;28;20511;-72
2021/09/23 08:08:09;;;;;;;24.40;11.80;;;;;;;15.80;88.90;101094.03;5015292;28;20941;-72
2021/09/23 08:10:36;;;;;;;25.80;11.43;;;;;;;15.86;89.26;101087.31;5015572;28;20858;-71
2021/09/23 08:13:04;;;;;;;25.97;12.93;;;;;;;16.00;87.16;101092.56;5015195;28;20795;-71
2021/09/23 08:15:30;;;;;;;33.80;13.23;;;;;;;16.21;85.99;101083.69;5015609;28;20571;-71
2021/09/23 08:17:57;;;;;;;29.53;10.87;;;;;;;16.24;85.46;101075.63;5015520;28;20491;-71
2021/09/23 08:20:24;;;;;;;27.50;12.63;;;;;;;16.41;86.19;101069.28;5015494;28;20444;-71
2021/09/23 08:22:50;;;;;;;25.57;10.90;;;;;;;16.58;84.36;101068.41;5015598;28;20446;-72
2021/09/23 08:25:17;;;;;;;21.53;9.80;;;;;;;16.67;84.46;101062.88;5015288;28;20831;-72
2021/09/23 08:27:43;;;;;;;21.67;10.33;;;;;;;16.73;83.60;101048.72;5015273;28;20451;-72
2021/09/23 08:30:12;;;;;;;25.93;12.03;;;;;;;16.66;82.50;101048.41;5014852;28;20439;-72
2021/09/23 08:32:38;;;;;;;23.67;9.63;;;;;;;16.74;83.85;101036.66;5014770;28;20871;-72
2021/09/23 08:35:07;;;;;;;22.43;9.77;;;;;;;16.78;82.72;101034.84;5015055;28;20436;-69
2021/09/23 08:37:33;;;;;;;28.90;10.83;;;;;;;16.80;82.06;101023.56;5015133;28;20818;-70
2021/09/23 08:40:00;;;;;;;26.93;12.60;;;;;;;16.86;82.23;101031.25;5015034;28;20443;-71
2021/09/23 08:42:27;;;;;;;17.60;7.97;;;;;;;16.88;82.69;101028.19;5014968;28;20460;-70
2021/09/23 08:44:56;;;;;;;21.67;9.17;;;;;;;16.94;80.59;101026.06;5014991;28;20483;-70
2021/09/23 08:47:24;;;;;;;22.87;10.40;;;;;;;16.89;80.64;101011.44;5014928;28;20448;-70
2021/09/23 08:49:50;;;;;;;16.83;8.90;;;;;;;16.77;82.00;101010.53;5014935;28;20444;-70
2021/09/23 08:52:17;;;;;;;21.00;9.70;;;;;;;16.69;79.97;101006.72;5014777;28;20456;-70
2021/09/23 08:54:43;;;;;;;16.70;7.30;;;;;;;16.72;80.59;101016.19;5014840;28;20480;-70
2021/09/23 08:57:10;;;;;;;17.70;8.23;;;;;;;16.71;80.07;101015.38;5014407;28;20444;-70
2021/09/23 08:59:36;;;;;;;15.47;7.20;;;;;;;16.87;79.43;101015.66;5014990;28;20494;-70
2021/09/23 09:02:05;;;;;;;19.10;7.87;;;;;;;16.98;80.54;101005.88;5014588;28;20467;-70
2021/09/23 09:04:34;;;;;;;17.97;8.67;;;;;;;17.09;78.93;100995.34;5014666;28;20543;-70
2021/09/23 09:07:03;;;;;;;22.57;9.07;;;;;;;17.25;79.30;100999.06;5014534;28;20444;-70
2021/09/23 09:09:29;;;;;;;16.90;7.53;;;;;;;17.28;77.06;100992.91;5014556;28;20455;-70
2021/09/23 09:11:57;;;;;;;16.73;7.03;;;;;;;17.40;77.76;100990.25;5014385;28;20468;-70
2021/09/23 09:14:25;;;;;;;23.87;7.60;;;;;;;17.50;77.63;100991.75;5014429;28;20448;-70
2021/09/23 09:17:00;;;;;;;17.87;8.10;;;;;;;17.58;75.16;100985.38;5014444;28;20444;-70
2021/09/23 09:19:26;;;;;;;26.87;8.50;;;;;;;17.53;75.14;100982.03;5014086;28;20435;-70
2021/09/23 09:22:09;;;;;;;16.83;7.57;;;;;;;17.70;75.70;100970.09;5014032;28;20541;-70
2021/09/23 09:24:37;;;;;;;16.53;6.87;;;;;;;17.86;76.80;100982.84;5014297;28;20784;-70
2021/09/23 09:27:04;;;;;;;16.60;7.33;;;;;;;17.87;73.61;100969.94;5014133;28;20483;-70
2021/09/23 09:29:32;;;;;;;19.40;7.67;;;;;;;17.97;72.91;100969.47;5014206;28;20440;-69
2021/09/23 09:31:58;;;;;;;12.40;7.30;;;;;;;18.08;72.58;100964.34;5014079;28;20539;-70
2021/09/23 09:34:24;;;;;;;15.97;6.33;;;;;;;18.24;73.15;100961.72;5014144;28;20448;-70
2021/09/23 09:36:52;;;;;;;22.10;7.67;;;;;;;18.21;71.51;100952.25;5014081;28;20455;-70
2021/09/23 09:39:21;;;;;;;13.20;6.23;;;;;;;18.26;70.08;100957.50;5013999;28;20823;-70
2021/09/23 09:41:50;;;;;;;15.37;7.07;;;;;;;18.39;71.12;100948.13;5013496;28;20563;-70
2021/09/23 09:44:17;;;;;;;14.90;7.27;;;;;;;18.58;71.04;100935.72;5013861;28;20451;-70
2021/09/23 09:46:48;;;;;;;14.23;6.53;;;;;;;18.70;71.19;100929.44;5013547;28;20484;-70
2021/09/23 09:49:14;;;;;;;21.87;9.33;;;;;;;18.75;68.96;100929.19;5013615;28;20929;-70
2021/09/23 09:51:43;;;;;;;13.50;6.13;;;;;;;18.75;69.08;100935.50;5013355;28;20460;-70
2021/09/23 09:54:12;;;;;;;13.37;7.50;;;;;;;18.73;68.77;100926.81;5013690;28;20436;-70
2021/09/23 09:56:41;;;;;;;13.63;7.50;;;;;;;18.56;68.92;100924.31;5013792;28;20440;-70
2021/09/23 09:59:12;;;;;;;14.33;7.27;;;;;;;18.63;70.04;100930.78;5013694;28;20451;-70
2021/09/23 10:01:39;;;;;;;16.93;6.30;;;;;;;18.69;68.46;100934.16;5013378;28;20913;-70
2021/09/23 10:04:06;;;;;;;12.30;6.17;;;;;;;18.70;69.26;100915.72;5013299;28;20949;-70
2021/09/23 10:06:33;;;;;;;17.10;6.10;;;;;;;18.87;69.68;100918.97;5013542;28;20484;-70
2021/09/23 10:09:00;;;;;;;16.60;7.73;;;;;;;18.93;67.45;100916.00;5013606;28;20482;-70
2021/09/23 10:11:26;;;;;;;21.33;8.20;;;;;;;19.03;68.01;100910.78;5013516;28;20464;-70
2021/09/23 10:13:55;;;;;;;21.60;6.23;;;;;;;19.09;68.90;100900.38;5013561;28;20467;-70
2021/09/23 10:16:22;;;;;;;14.20;7.10;;;;;;;19.20;67.46;100897.91;5013413;28;20440;-70
2021/09/23 10:18:49;;;;;;;16.93;6.17;;;;;;;19.27;67.94;100882.41;5011636;28;20938;-69
2021/09/23 10:21:17;;;;;;;14.63;6.47;;;;;;;19.28;67.47;100886.75;5012941;28;20472;-70
2021/09/23 10:23:44;;;;;;;13.87;6.50;;;;;;;19.20;67.04;100879.47;5013082;28;20988;-70
2021/09/23 10:26:15;;;;;;;13.23;6.60;;;;;;;19.21;67.48;100878.31;5013327;28;20484;-70
2021/09/23 10:28:45;;;;;;;13.50;5.80;;;;;;;19.25;67.62;100861.94;5013366;28;20424;-70
2021/09/23 10:31:17;;;;;;;14.50;5.80;;;;;;;19.30;68.09;100875.41;5013317;28;20474;-69
2021/09/23 10:33:44;;;;;;;12.60;6.37;;;;;;;19.15;65.56;100869.53;5013322;28;20424;-70
2021/09/23 10:36:11;;;;;;;11.47;5.60;;;;;;;19.14;67.41;100856.97;5013253;28;20816;-70
2021/09/23 10:38:39;;;;;;;10.40;5.63;;;;;;;19.06;67.91;100854.38;5013218;28;20452;-70
2021/09/23 10:41:07;;;;;;;11.13;5.00;;;;;;;19.16;67.34;100845.63;5012845;28;20848;-70
2021/09/23 10:43:33;;;;;;;10.33;4.77;;;;;;;19.20;67.13;100848.47;5013093;28;20448;-70
2021/09/23 10:46:00;;;;;;;20.37;6.00;;;;;;;19.05;64.91;100841.81;5013125;28;20480;-70
2021/09/23 10:48:33;;;;;;;12.97;4.67;;;;;;;19.08;66.33;100843.81;5013208;28;20863;-70
2021/09/23 10:51:00;;;;;;;11.33;5.37;;;;;;;19.01;66.84;100843.66;5013215;28;20466;-70
2021/09/23 10:53:28;;;;;;;11.03;5.30;;;;;;;18.99;66.57;100830.28;5013321;28;20972;-69
2021/09/23 10:56:00;;;;;;;8.80;4.90;;;;;;;19.07;66.44;100834.78;5017079;28;20455;-70
2021/09/23 10:58:27;;;;;;;13.73;5.37;;;;;;;19.06;67.03;100821.44;5017066;28;20416;-70
2021/09/23 11:00:54;;;;;;;11.80;5.03;;;;;;;19.34;66.69;100815.84;5016907;28;20467;-70
2021/09/23 11:03:21;;;;;;;8.10;4.60;;;;;;;19.56;68.51;100814.41;5016924;28;20447;-69
2021/09/23 11:05:49;;;;;;;8.33;4.90;;;;;;;19.75;66.55;100820.03;5016808;28;20929;-70
2021/09/23 11:08:17;;;;;;;9.77;4.70;;;;;;;19.79;65.40;100804.41;5016693;28;20462;-69
2021/09/23 11:10:45;;;;;;;13.87;5.33;;;;;;;19.94;64.07;100796.47;5016619;28;20514;-69